createdAt,value
2022-10-08T00:02:00.856Z,10.32
2022-10-08T00:04:30.787Z,12.68
2022-10-08T00:06:59.097Z,11.73
2022-10-08T00:09:27.545Z,12.07
2022-10-08T00:11:57.663Z,11.10
2022-10-08T00:14:26.071Z,10.50
2022-10-08T00:16:54.617Z,17.55
2022-10-08T00:19:22.932Z,11.32
2022-10-08T00:21:56.824Z,11.40
2022-10-08T00:24:25.576Z,8.75
2022-10-08T00:26:53.931Z,11.25
2022-10-08T00:29:23.009Z,8.93
2022-10-08T00:31:52.064Z,10.98
2022-10-08T00:34:22.990Z,15.02
2022-10-08T00:36:53.963Z,10.30
2022-10-08T00:39:23.137Z,9.25
2022-10-08T00:41:52.534Z,7.32
2022-10-08T00:44:39.587Z,10.18
2022-10-08T00:47:15.847Z,8.93
2022-10-08T00:49:44.274Z,8.02
2022-10-08T00:52:14.244Z,11.50
2022-10-08T00:54:43.012Z,9.65
2022-10-08T00:57:11.873Z,7.40
2022-10-08T00:59:40.463Z,13.75
2022-10-08T01:02:09.149Z,9.07
2022-10-08T01:04:38.133Z,10.20
2022-10-08T01:07:10.103Z,8.35
2022-10-08T01:09:42.142Z,8.95
2022-10-08T01:12:15.846Z,10.70
2022-10-08T01:14:48.016Z,7.78
2022-10-08T01:17:20.248Z,9.93
2022-10-08T01:20:12.795Z,8.45
2022-10-08T01:22:51.176Z,8.73
2022-10-08T01:25:35.552Z,10.05
2022-10-08T01:28:09.905Z,9.43
2022-10-08T01:30:41.465Z,10.32
2022-10-08T01:33:12.908Z,11.15
2022-10-08T01:35:44.668Z,11.95
2022-10-08T01:38:15.215Z,10.57
2022-10-08T01:40:44.122Z,8.80
2022-10-08T01:43:15.786Z,14.45
2022-10-08T01:45:47.495Z,11.57
2022-10-08T01:48:18.233Z,13.32
2022-10-08T01:50:50.309Z,13.35
2022-10-08T01:53:19.475Z,8.40
2022-10-08T01:55:49.581Z,11.95
2022-10-08T01:58:20.818Z,12.85
2022-10-08T02:00:52.059Z,12.07
2022-10-08T02:03:20.385Z,9.93
2022-10-08T02:05:51.564Z,9.50
2022-10-08T02:08:20.672Z,7.70
2022-10-08T02:10:49.077Z,9.13
2022-10-08T02:13:18.809Z,10.25
2022-10-08T02:15:50.352Z,8.10
2022-10-08T02:18:19.614Z,11.00
2022-10-08T02:20:50.411Z,9.40
2022-10-08T02:23:23.772Z,8.55
2022-10-08T02:25:53.693Z,10.73
2022-10-08T02:28:25.949Z,10.88
2022-10-08T02:30:55.747Z,12.68
2022-10-08T02:33:26.952Z,10.38
2022-10-08T02:35:56.793Z,10.98
2022-10-08T02:38:27.228Z,10.25
2022-10-08T02:40:58.369Z,13.63
2022-10-08T02:43:30.636Z,10.73
2022-10-08T02:46:24.885Z,7.55
2022-10-08T02:48:58.526Z,10.45
2022-10-08T02:51:28.666Z,10.82
2022-10-08T02:53:57.017Z,10.43
2022-10-08T02:56:27.540Z,10.82
2022-10-08T02:58:57.615Z,11.43
2022-10-08T03:01:33.352Z,9.80
2022-10-08T03:04:04.345Z,10.43
2022-10-08T03:06:33.622Z,9.60
2022-10-08T03:09:02.567Z,11.38
2022-10-08T03:11:31.700Z,12.32
2022-10-08T03:14:03.970Z,11.23
2022-10-08T03:16:36.802Z,11.07
2022-10-08T03:19:06.007Z,13.57
2022-10-08T03:21:34.499Z,9.75
2022-10-08T03:24:02.876Z,11.43
2022-10-08T03:26:31.163Z,10.82
2022-10-08T03:28:59.465Z,9.73
2022-10-08T03:31:29.181Z,13.95
2022-10-08T03:33:57.796Z,12.90
2022-10-08T03:36:26.689Z,13.82
2022-10-08T03:38:55.045Z,12.93
2022-10-08T03:41:23.553Z,9.90
2022-10-08T03:43:51.853Z,10.35
2022-10-08T03:46:20.240Z,12.32
2022-10-08T03:48:51.258Z,9.75
2022-10-08T03:51:20.170Z,14.25
2022-10-08T03:53:48.854Z,12.55
2022-10-08T03:56:18.536Z,9.02
2022-10-08T03:58:48.410Z,12.05
2022-10-08T04:01:17.894Z,13.45
2022-10-08T04:03:46.792Z,14.60
2022-10-08T04:06:16.551Z,12.13
2022-10-08T04:08:45.374Z,12.88
2022-10-08T04:11:14.577Z,11.48
2022-10-08T04:13:43.181Z,9.90
2022-10-08T04:16:13.197Z,9.65
2022-10-08T04:18:41.594Z,11.63
2022-10-08T04:21:10.944Z,12.07
2022-10-08T04:23:41.034Z,10.10
2022-10-08T04:26:09.632Z,12.82
2022-10-08T04:28:39.239Z,11.57
2022-10-08T04:31:08.623Z,16.20
2022-10-08T04:33:37.318Z,9.63
2022-10-08T04:36:08.692Z,12.05
2022-10-08T04:38:37.029Z,8.25
2022-10-08T04:41:08.688Z,12.02
2022-10-08T04:43:37.217Z,12.60
2022-10-08T04:46:06.223Z,12.15
2022-10-08T04:48:34.589Z,13.75
2022-10-08T04:51:06.891Z,14.55
2022-10-08T04:53:37.930Z,10.57
2022-10-08T04:56:11.908Z,10.88
2022-10-08T04:58:40.383Z,12.15
2022-10-08T05:01:09.846Z,10.40
2022-10-08T05:03:39.101Z,10.07
2022-10-08T05:06:08.208Z,10.45
2022-10-08T05:08:37.125Z,13.85
2022-10-08T05:11:05.746Z,9.65
2022-10-08T05:13:35.462Z,16.42
2022-10-08T05:16:07.409Z,10.70
2022-10-08T05:18:36.684Z,12.07
2022-10-08T05:21:05.911Z,13.45
2022-10-08T05:23:34.600Z,10.73
2022-10-08T05:26:03.291Z,12.25
2022-10-08T05:28:31.681Z,9.18
2022-10-08T05:31:04.524Z,10.20
2022-10-08T05:33:32.846Z,12.30
2022-10-08T05:36:03.779Z,13.05
2022-10-08T05:38:34.912Z,12.05
2022-10-08T05:41:11.293Z,12.32
2022-10-08T05:43:39.640Z,15.95
2022-10-08T05:46:09.375Z,12.98
2022-10-08T05:48:38.274Z,14.45
2022-10-08T05:51:07.235Z,8.88
2022-10-08T05:53:38.788Z,13.60
2022-10-08T05:56:08.106Z,8.93
2022-10-08T05:58:37.361Z,12.35
2022-10-08T06:01:06.981Z,15.13
2022-10-08T06:03:36.872Z,12.73
2022-10-08T06:06:06.167Z,9.40
2022-10-08T06:08:34.853Z,10.77
2022-10-08T06:11:03.989Z,12.63
2022-10-08T06:13:32.303Z,14.88
2022-10-08T06:16:01.840Z,9.65
2022-10-08T06:18:31.046Z,11.00
2022-10-08T06:21:03.149Z,10.38
2022-10-08T06:23:31.438Z,9.63
2022-10-08T06:26:02.945Z,10.02
2022-10-08T06:28:31.304Z,9.98
2022-10-08T06:31:00.543Z,11.13
2022-10-08T06:33:28.895Z,10.45
2022-10-08T06:35:57.265Z,9.00
2022-10-08T06:38:26.902Z,8.93
2022-10-08T06:40:58.342Z,10.43
2022-10-08T06:43:26.661Z,11.68
2022-10-08T06:45:56.470Z,10.23
2022-10-08T06:48:24.782Z,8.68
2022-10-08T06:50:59.108Z,10.30
2022-10-08T06:53:28.849Z,8.80
2022-10-08T06:56:00.329Z,10.45
2022-10-08T06:58:28.635Z,11.18
2022-10-08T07:01:03.794Z,12.15
2022-10-08T07:03:32.509Z,10.27
2022-10-08T07:06:01.798Z,11.57
2022-10-08T07:08:31.775Z,10.23
2022-10-08T07:11:04.657Z,11.30
2022-10-08T07:13:32.957Z,11.90
2022-10-08T07:16:04.389Z,9.98
2022-10-08T07:18:32.971Z,10.45
2022-10-08T07:21:01.938Z,11.77
2022-10-08T07:23:31.758Z,12.77
2022-10-08T07:26:01.018Z,15.15
2022-10-08T07:28:30.169Z,9.98
2022-10-08T07:30:58.561Z,9.32
2022-10-08T07:33:26.867Z,10.07
2022-10-08T07:35:55.217Z,9.13
2022-10-08T07:38:24.056Z,8.57
2022-10-08T07:40:56.581Z,7.10
2022-10-08T07:43:24.909Z,9.23
2022-10-08T07:45:53.309Z,7.85
2022-10-08T07:48:21.730Z,8.60
2022-10-08T07:50:50.038Z,9.43
2022-10-08T07:53:18.362Z,7.15
2022-10-08T07:55:46.690Z,10.57
2022-10-08T07:58:16.353Z,8.52
2022-10-08T08:00:44.717Z,10.52
2022-10-08T08:03:15.341Z,11.90
2022-10-08T08:05:43.641Z,8.75
2022-10-08T08:08:12.311Z,7.35
2022-10-08T08:10:40.623Z,8.52
2022-10-08T08:13:08.927Z,6.15
2022-10-08T08:15:38.814Z,7.15
2022-10-08T08:18:07.167Z,10.38
2022-10-08T08:20:35.714Z,6.32
2022-10-08T08:23:04.037Z,7.90
2022-10-08T08:25:32.304Z,8.30
2022-10-08T08:28:00.701Z,8.60
2022-10-08T08:30:29.023Z,12.60
2022-10-08T08:32:59.455Z,8.40
2022-10-08T08:35:27.745Z,8.27
2022-10-08T08:37:56.017Z,6.82
2022-10-08T08:40:24.353Z,7.70
2022-10-08T08:42:55.441Z,6.38
2022-10-08T08:45:45.440Z,5.85
2022-10-08T08:48:18.885Z,8.38
2022-10-08T08:50:49.100Z,10.55
2022-10-08T08:53:17.433Z,7.75
2022-10-08T08:55:47.053Z,9.63
2022-10-08T08:58:20.886Z,8.10
2022-10-08T09:00:57.535Z,5.13
2022-10-08T09:03:28.565Z,12.48
2022-10-08T09:05:57.846Z,7.03
2022-10-08T09:08:30.615Z,7.68
2022-10-08T09:11:01.420Z,8.45
2022-10-08T09:13:32.748Z,7.30
2022-10-08T09:16:01.189Z,6.00
2022-10-08T09:18:30.991Z,5.90
2022-10-08T09:20:59.307Z,6.20
2022-10-08T09:23:28.162Z,10.10
2022-10-08T09:25:59.073Z,8.95
2022-10-08T09:28:41.233Z,8.20
2022-10-08T09:31:14.191Z,10.57
2022-10-08T09:33:44.324Z,5.60
2022-10-08T09:36:12.805Z,6.05
2022-10-08T09:38:41.227Z,15.05
2022-10-08T09:41:13.413Z,8.18
2022-10-08T09:43:41.728Z,10.02
2022-10-08T09:46:12.212Z,4.70
2022-10-08T09:48:41.672Z,6.82
2022-10-08T09:51:15.315Z,9.23
2022-10-08T09:53:44.779Z,9.63
2022-10-08T09:56:14.261Z,10.90
2022-10-08T09:58:50.401Z,7.60
2022-10-08T10:01:19.241Z,6.50
2022-10-08T10:03:51.715Z,7.18
2022-10-08T10:06:27.936Z,5.25
2022-10-08T10:08:57.835Z,6.60
2022-10-08T10:11:28.470Z,7.75
2022-10-08T10:13:57.772Z,7.85
2022-10-08T10:16:28.181Z,8.45
2022-10-08T10:18:59.001Z,6.30
2022-10-08T10:21:34.677Z,8.18
2022-10-08T10:24:08.393Z,7.50
2022-10-08T10:26:38.894Z,6.45
2022-10-08T10:29:09.053Z,5.72
2022-10-08T10:31:40.072Z,6.43
2022-10-08T10:34:11.627Z,5.80
2022-10-08T10:36:45.694Z,6.43
2022-10-08T10:39:18.309Z,5.13
2022-10-08T10:41:49.739Z,4.95
2022-10-08T10:44:20.641Z,10.23
2022-10-08T10:46:51.583Z,4.70
2022-10-08T10:49:21.026Z,8.25
2022-10-08T10:51:59.161Z,6.45
2022-10-08T10:54:40.598Z,6.75
2022-10-08T10:57:11.650Z,7.22
2022-10-08T10:59:47.205Z,5.50
2022-10-08T11:02:21.231Z,8.68
2022-10-08T11:04:58.161Z,7.47
2022-10-08T11:07:42.764Z,4.90
2022-10-08T11:10:20.471Z,7.22
2022-10-08T11:12:51.677Z,4.10
2022-10-08T11:15:24.127Z,8.88
2022-10-08T11:17:58.059Z,5.88
2022-10-08T11:20:44.034Z,4.68
2022-10-08T11:23:21.786Z,7.18
2022-10-08T11:26:15.305Z,6.43
2022-10-08T11:28:47.529Z,8.55
2022-10-08T11:31:18.827Z,5.35
2022-10-08T11:33:48.006Z,8.70
2022-10-08T11:36:20.702Z,5.78
2022-10-08T11:38:53.039Z,6.53
2022-10-08T11:41:25.693Z,5.10
2022-10-08T11:43:56.038Z,6.53
2022-10-08T11:46:28.736Z,5.82
2022-10-08T11:48:58.492Z,7.88
2022-10-08T11:51:38.295Z,8.02
2022-10-08T11:54:09.791Z,4.90
2022-10-08T11:56:39.137Z,4.80
2022-10-08T11:59:10.347Z,6.90
2022-10-08T12:01:51.298Z,5.70
2022-10-08T12:04:21.465Z,8.88
2022-10-08T12:07:01.411Z,3.83
2022-10-08T12:09:51.046Z,4.38
2022-10-08T12:12:19.374Z,4.32
2022-10-08T12:14:49.637Z,5.55
2022-10-08T12:17:18.482Z,6.05
2022-10-08T12:20:07.972Z,3.83
2022-10-08T12:22:43.818Z,7.47
2022-10-08T12:25:27.030Z,5.50
2022-10-08T12:28:16.711Z,4.57
2022-10-08T12:30:49.462Z,6.05
2022-10-08T12:33:18.291Z,5.50
2022-10-08T12:35:53.622Z,5.25
2022-10-08T12:38:26.416Z,5.07
2022-10-08T12:40:59.358Z,7.32
2022-10-08T12:43:34.685Z,7.30
2022-10-08T12:46:08.553Z,5.03
2022-10-08T12:48:40.043Z,5.57
2022-10-08T12:51:15.167Z,6.00
2022-10-08T12:53:46.644Z,6.72
2022-10-08T12:56:17.290Z,7.63
2022-10-08T12:58:47.783Z,5.85
2022-10-08T13:01:17.558Z,6.82
2022-10-08T13:03:47.745Z,6.45
2022-10-08T13:06:18.467Z,5.30
2022-10-08T13:08:50.625Z,7.05
2022-10-08T13:11:19.586Z,5.57
2022-10-08T13:13:50.284Z,5.68
2022-10-08T13:16:20.024Z,6.38
2022-10-08T13:18:49.824Z,5.60
2022-10-08T13:21:39.184Z,10.70
2022-10-08T13:24:22.467Z,6.68
2022-10-08T13:26:52.167Z,5.65
2022-10-08T13:29:29.664Z,5.32
2022-10-08T13:31:59.546Z,4.20
2022-10-08T13:34:30.611Z,5.32
2022-10-08T13:37:02.346Z,6.43
2022-10-08T13:39:36.247Z,5.78
2022-10-08T13:42:10.094Z,4.43
2022-10-08T13:44:41.584Z,6.32
2022-10-08T13:47:12.273Z,6.43
2022-10-08T13:49:40.786Z,6.72
2022-10-08T13:52:11.977Z,10.85
2022-10-08T13:54:42.329Z,6.68
2022-10-08T13:57:10.935Z,7.78
2022-10-08T13:59:40.604Z,5.22
2022-10-08T14:02:09.099Z,7.95
2022-10-08T14:04:37.602Z,7.10
2022-10-08T14:07:06.067Z,5.32
2022-10-08T14:09:35.104Z,4.57
2022-10-08T14:12:05.265Z,5.85
2022-10-08T14:14:33.664Z,5.25
2022-10-08T14:17:03.331Z,9.05
2022-10-08T14:19:31.611Z,5.68
2022-10-08T14:21:59.905Z,4.45
2022-10-08T14:24:28.214Z,5.05
2022-10-08T14:26:56.534Z,5.53
2022-10-08T14:29:24.832Z,8.13
2022-10-08T14:31:53.227Z,5.47
2022-10-08T14:34:22.933Z,5.70
2022-10-08T14:36:55.173Z,5.68
2022-10-08T14:39:23.469Z,5.32
2022-10-08T14:41:51.786Z,4.32
2022-10-08T14:44:22.303Z,5.22
2022-10-08T14:46:52.791Z,4.95
2022-10-08T14:49:23.989Z,6.60
2022-10-08T14:51:52.321Z,5.68
2022-10-08T14:54:20.873Z,3.78
2022-10-08T14:56:49.228Z,6.10
2022-10-08T14:59:18.310Z,6.90
2022-10-08T15:01:46.662Z,5.30
2022-10-08T15:04:16.622Z,4.15
2022-10-08T15:06:46.385Z,5.25
2022-10-08T15:09:16.258Z,4.63
2022-10-08T15:11:44.609Z,4.38
2022-10-08T15:14:14.275Z,5.07
2022-10-08T15:16:43.709Z,5.65
2022-10-08T15:19:12.290Z,4.30
2022-10-08T15:21:40.625Z,5.47
2022-10-08T15:24:10.500Z,5.30
2022-10-08T15:26:38.808Z,3.13
2022-10-08T15:29:07.138Z,4.00
2022-10-08T15:31:35.625Z,5.45
2022-10-08T15:34:04.001Z,5.72
2022-10-08T15:36:33.161Z,7.90
2022-10-08T15:39:02.542Z,3.72
2022-10-08T15:41:35.553Z,4.28
2022-10-08T15:44:08.589Z,7.10
2022-10-08T15:46:37.387Z,5.35
2022-10-08T15:49:06.984Z,5.80
2022-10-08T15:51:35.401Z,4.57
2022-10-08T15:54:04.136Z,6.35
2022-10-08T15:56:33.969Z,5.57
2022-10-08T15:59:02.886Z,5.18
2022-10-08T16:01:31.562Z,6.13
2022-10-08T16:04:00.354Z,7.53
2022-10-08T16:06:29.737Z,7.38
2022-10-08T16:08:58.668Z,5.22
2022-10-08T16:11:28.169Z,4.88
2022-10-08T16:14:00.410Z,6.32
2022-10-08T16:16:28.825Z,3.85
2022-10-08T16:18:57.986Z,5.72
2022-10-08T16:21:26.718Z,7.07
2022-10-08T16:23:55.270Z,7.38
2022-10-08T16:26:23.934Z,9.60
2022-10-08T16:28:55.158Z,7.85
2022-10-08T16:31:25.495Z,7.32
2022-10-08T16:33:56.574Z,4.88
2022-10-08T16:36:25.094Z,6.40
2022-10-08T16:38:54.764Z,8.68
2022-10-08T16:41:24.322Z,7.22
2022-10-08T16:43:53.209Z,6.82
2022-10-08T16:46:22.729Z,5.10
2022-10-08T16:48:55.696Z,5.75
2022-10-08T16:51:24.713Z,6.85
2022-10-08T16:53:53.898Z,4.70
2022-10-08T16:56:22.774Z,8.07
2022-10-08T16:58:52.867Z,8.13
2022-10-08T17:01:21.828Z,8.05
2022-10-08T17:03:50.720Z,8.57
2022-10-08T17:06:21.110Z,7.72
2022-10-08T17:08:49.721Z,6.45
2022-10-08T17:11:19.367Z,8.85
2022-10-08T17:13:48.843Z,7.05
2022-10-08T17:16:17.818Z,6.05
2022-10-08T17:18:46.294Z,8.18
2022-10-08T17:21:15.987Z,10.00
2022-10-08T17:23:45.705Z,6.18
2022-10-08T17:26:14.794Z,4.93
2022-10-08T17:28:43.989Z,11.82
2022-10-08T17:31:14.263Z,5.18
2022-10-08T17:33:43.024Z,8.07
2022-10-08T17:36:12.826Z,6.18
2022-10-08T17:38:42.074Z,7.68
2022-10-08T17:41:15.803Z,11.38
2022-10-08T17:43:44.724Z,7.93
2022-10-08T17:46:13.758Z,8.50
2022-10-08T17:48:42.276Z,8.82
2022-10-08T17:51:12.121Z,7.32
2022-10-08T17:53:40.479Z,6.45
2022-10-08T17:56:10.484Z,5.50
2022-10-08T17:58:40.320Z,7.20
2022-10-08T18:01:10.110Z,8.55
2022-10-08T18:03:39.126Z,8.07
2022-10-08T18:06:07.845Z,7.05
2022-10-08T18:08:36.439Z,5.97
2022-10-08T18:11:04.837Z,8.32
2022-10-08T18:13:33.823Z,10.68
2022-10-08T18:16:07.325Z,10.38
2022-10-08T18:18:35.798Z,7.97
2022-10-08T18:21:04.727Z,9.07
2022-10-08T18:23:33.792Z,8.50
2022-10-08T18:26:08.770Z,53.97
2022-10-08T18:28:37.548Z,30.70
2022-10-08T18:31:08.130Z,186.57
2022-10-08T18:33:37.719Z,294.15
2022-10-08T18:36:16.012Z,89.53
2022-10-08T18:38:45.224Z,25.55
2022-10-08T18:41:14.192Z,13.38
2022-10-08T18:43:42.486Z,13.00
2022-10-08T18:46:12.386Z,7.60
2022-10-08T18:48:41.089Z,10.65
2022-10-08T18:51:10.424Z,8.88
2022-10-08T18:53:39.685Z,8.95
2022-10-08T18:56:09.397Z,13.07
2022-10-08T18:58:38.433Z,11.75
2022-10-08T19:01:07.181Z,12.98
2022-10-08T19:03:36.886Z,9.48
2022-10-08T19:06:07.914Z,12.57
2022-10-08T19:08:36.230Z,12.32
2022-10-08T19:11:09.882Z,9.90
2022-10-08T19:13:38.199Z,9.77
2022-10-08T19:16:13.046Z,13.48
2022-10-08T19:18:43.656Z,8.35
2022-10-08T19:21:12.489Z,7.68
2022-10-08T19:23:41.612Z,10.23
2022-10-08T19:26:10.066Z,9.85
2022-10-08T19:28:39.639Z,11.13
2022-10-08T19:31:14.788Z,12.95
2022-10-08T19:33:44.482Z,10.88
2022-10-08T19:36:14.932Z,9.40
2022-10-08T19:38:44.370Z,10.82
2022-10-08T19:41:13.520Z,11.43
2022-10-08T19:43:43.722Z,11.20
2022-10-08T19:46:12.345Z,17.20
2022-10-08T19:48:40.931Z,25.30
2022-10-08T19:51:11.686Z,19.73
2022-10-08T19:53:40.348Z,19.05
2022-10-08T19:56:09.857Z,18.25
2022-10-08T19:58:38.418Z,13.30
2022-10-08T20:01:07.934Z,15.73
2022-10-08T20:03:36.500Z,21.58
2022-10-08T20:06:05.179Z,21.52
2022-10-08T20:08:34.870Z,17.23
2022-10-08T20:11:03.824Z,17.20
2022-10-08T20:13:32.253Z,14.43
2022-10-08T20:16:03.622Z,15.00
2022-10-08T20:18:31.987Z,8.65
2022-10-08T20:21:03.672Z,11.68
2022-10-08T20:23:31.983Z,10.10
2022-10-08T20:26:10.201Z,10.18
2022-10-08T20:28:38.722Z,9.00
2022-10-08T20:31:11.187Z,9.88
2022-10-08T20:33:40.650Z,8.88
2022-10-08T20:36:09.200Z,10.07
2022-10-08T20:38:37.520Z,9.82
2022-10-08T20:41:06.271Z,12.15
2022-10-08T20:43:36.548Z,11.10
2022-10-08T20:46:05.596Z,9.68
2022-10-08T20:48:33.969Z,11.75
2022-10-08T20:51:03.128Z,10.20
2022-10-08T20:53:31.761Z,8.65
2022-10-08T20:56:04.064Z,7.30
2022-10-08T20:58:34.034Z,8.40
2022-10-08T21:01:08.593Z,9.48
2022-10-08T21:03:37.312Z,9.98
2022-10-08T21:06:06.011Z,9.90
2022-10-08T21:08:36.924Z,8.02
2022-10-08T21:11:06.219Z,7.30
2022-10-08T21:13:35.687Z,5.97
2022-10-08T21:16:04.958Z,6.25
2022-10-08T21:18:34.684Z,8.65
2022-10-08T21:21:03.844Z,8.70
2022-10-08T21:23:32.224Z,16.35
2022-10-08T21:26:07.400Z,9.43
2022-10-08T21:28:35.872Z,11.90
2022-10-08T21:31:04.950Z,11.95
2022-10-08T21:33:37.057Z,11.23
2022-10-08T21:36:06.016Z,8.82
2022-10-08T21:38:34.870Z,9.20
2022-10-08T21:41:08.528Z,10.30
2022-10-08T21:43:36.844Z,10.95
2022-10-08T21:46:05.573Z,12.02
2022-10-08T21:48:33.974Z,9.98
2022-10-08T21:51:04.527Z,14.38
2022-10-08T21:53:34.229Z,9.70
2022-10-08T21:56:03.923Z,12.80
2022-10-08T21:58:33.232Z,12.88
2022-10-08T22:01:01.602Z,7.40
2022-10-08T22:03:29.988Z,8.38
2022-10-08T22:05:59.271Z,8.95
2022-10-08T22:08:30.277Z,10.45
2022-10-08T22:11:00.031Z,11.10
2022-10-08T22:13:28.320Z,13.25
2022-10-08T22:15:57.651Z,8.32
2022-10-08T22:18:26.604Z,9.15
2022-10-08T22:20:55.416Z,13.52
2022-10-08T22:23:24.286Z,12.02
2022-10-08T22:25:57.732Z,9.90
2022-10-08T22:28:26.313Z,13.65
2022-10-08T22:30:54.700Z,10.40
2022-10-08T22:33:23.257Z,13.13
2022-10-08T22:35:51.577Z,11.75
2022-10-08T22:38:19.940Z,13.38
2022-10-08T22:40:48.254Z,9.93
2022-10-08T22:43:18.223Z,12.43
2022-10-08T22:45:46.589Z,14.75
2022-10-08T22:48:14.908Z,16.20
2022-10-08T22:50:43.218Z,13.90
2022-10-08T22:53:11.516Z,15.63
2022-10-08T22:55:41.767Z,15.07
2022-10-08T22:58:10.371Z,17.60
2022-10-08T23:00:40.050Z,13.93
2022-10-08T23:03:08.387Z,11.75
2022-10-08T23:05:36.731Z,15.70
2022-10-08T23:08:05.037Z,11.98
2022-10-08T23:10:33.342Z,12.60
2022-10-08T23:13:01.640Z,14.85
2022-10-08T23:15:29.936Z,17.23
2022-10-08T23:17:59.598Z,14.65
2022-10-08T23:20:27.930Z,14.70
2022-10-08T23:22:56.470Z,13.88
2022-10-08T23:25:24.770Z,15.00
2022-10-08T23:27:53.126Z,16.33
2022-10-08T23:30:42.187Z,14.60
2022-10-08T23:33:11.049Z,15.10
2022-10-08T23:35:39.397Z,13.68
2022-10-08T23:38:08.019Z,15.60
2022-10-08T23:40:36.317Z,15.60
2022-10-08T23:43:05.408Z,15.70
2022-10-08T23:45:33.786Z,18.10
2022-10-08T23:48:02.363Z,17.25
2022-10-08T23:50:32.001Z,16.08
2022-10-08T23:53:00.279Z,18.23
2022-10-08T23:55:28.561Z,19.35
2022-10-08T23:57:56.868Z,14.60
